Time;durP1;ratioP1;P1;durP2;ratioP2;P2;SDS_P1;SDS_P2;PMS_P1;PMS_P2;Temp;Humidity;BMP_temperature;BMP_pressure;BME280_temperature;BME280_humidity;BME280_pressure;Samples;Min_cycle;Max_cycle;Signal;HPM_P1;HPM_P2
2022/09/14 00:00:17;;;;;;;7.22;2.67;;;14.50;99.90;;;;;;5115962;28;20127;-85
2022/09/14 00:02:45;;;;;;;3.40;2.85;;;;;;;;;;5081095;28;20134;-80
2022/09/14 00:05:11;;;;;;;2.78;2.55;;;;;;;;;;5116226;28;20047;-81
2022/09/14 00:07:37;;;;;;;7.97;2.53;;;;;;;;;;5116219;28;20127;-81
2022/09/14 00:10:03;;;;;;;6.60;2.63;;;;;;;;;;5080768;28;20122;-81
2022/09/14 00:12:29;;;;;;;2.63;2.05;;;;;;;;;;5097498;28;20335;-81
2022/09/14 00:14:55;;;;;;;4.88;2.70;;;;;;;;;;5080381;28;20066;-81
2022/09/14 00:17:21;;;;;;;6.35;2.45;;;;;;;;;;5097408;28;20495;-78
2022/09/14 00:19:48;;;;;;;6.13;2.88;;;;;;;;;;5080594;28;20507;-80
2022/09/14 00:22:14;;;;;;;8.52;2.60;;;;;;;;;;5097378;28;20105;-79
2022/09/14 00:24:40;;;;;;;5.00;2.42;;;;;;;;;;5080553;28;20087;-81
2022/09/14 00:27:05;;;;;;;5.43;2.30;;;;;;;;;;5115566;28;20082;-80
2022/09/14 00:29:32;;;;;;;5.70;2.28;;;;;;;;;;5080369;28;20131;-81
2022/09/14 00:31:58;;;;;;;6.22;2.80;;;;;;;;;;5080154;28;20039;-82
2022/09/14 00:34:24;;;;;;;7.68;2.55;;;14.30;99.90;;;;;;5097252;28;20043;-81
2022/09/14 00:36:50;;;;;;;6.97;2.40;;;14.60;99.90;;;;;;5115412;28;20538;-81
2022/09/14 00:39:18;;;;;;;8.00;2.08;;;14.60;99.90;;;;;;5096913;28;20051;-81
2022/09/14 00:41:46;;;;;;;11.23;2.78;;;14.60;99.90;;;;;;5097006;28;20122;-81
2022/09/14 00:44:12;;;;;;;2.63;2.13;;;;;;;;;;5080113;28;20048;-78
2022/09/14 00:46:50;;;;;;;4.65;2.40;;;14.60;99.90;;;;;;5080204;28;20035;-81
2022/09/14 00:49:23;;;;;;;4.97;2.30;;;14.70;99.90;;;;;;5096899;28;20075;-82
2022/09/14 00:52:07;;;;;;;7.03;2.45;;;14.50;99.90;;;;;;5096719;28;20039;-81
2022/09/14 00:54:41;;;;;;;9.60;2.47;;;14.60;99.90;;;;;;5095767;28;20630;-82
2022/09/14 00:57:07;;;;;;;2.97;2.47;;;;;;;;;;5097144;28;20517;-82
2022/09/14 00:59:36;;;;;;;3.90;2.30;;;14.50;99.90;;;;;;5096629;28;20097;-82
2022/09/14 01:02:02;;;;;;;3.30;2.28;;;;;;;;;;5096686;28;20196;-82
2022/09/14 01:04:28;;;;;;;5.88;2.05;;;;;;;;;;5096718;28;20067;-83
2022/09/14 01:07:17;;;;;;;4.82;2.75;;;14.70;99.90;;;;;;5096447;28;20048;-82
2022/09/14 01:10:01;;;;;;;4.25;2.35;;;14.40;99.90;;;;;;5079995;28;20078;-82
2022/09/14 01:12:34;;;;;;;4.60;2.47;;;;;;;;;;5096527;28;20035;-83
2022/09/14 01:15:00;;;;;;;2.95;2.40;;;;;;;;;;5079434;28;20087;-83
2022/09/14 01:17:26;;;;;;;6.22;2.38;;;;;;;;;;5079622;28;20082;-82
2022/09/14 01:20:07;;;;;;;4.15;2.60;;;;;;;;;;5096404;28;20088;-82
2022/09/14 01:22:54;;;;;;;6.03;2.75;;;14.60;99.90;;;;;;5096350;28;20047;-83
2022/09/14 01:25:20;;;;;;;3.60;2.60;;;;;;;;;;5096099;28;20086;-82
2022/09/14 01:27:46;;;;;;;3.30;2.55;;;;;;;;;;5096342;28;20079;-82
2022/09/14 01:30:14;;;;;;;7.95;3.60;;;;;;;;;;5096284;28;20054;-83
2022/09/14 01:32:52;;;;;;;9.48;2.78;;;14.50;99.90;;;;;;5079317;28;20446;-83
2022/09/14 01:35:24;;;;;;;3.75;2.40;;;;;;;;;;5079060;28;20047;-83
2022/09/14 01:37:57;;;;;;;3.97;2.35;;;14.90;99.90;;;;;;5096210;28;20411;-83
2022/09/14 01:40:34;;;;;;;3.28;2.33;;;14.70;99.90;;;;;;5095833;28;20044;-84
2022/09/14 01:43:13;;;;;;;4.40;2.90;;;14.50;99.90;;;;;;5096282;28;20492;-85
2022/09/14 01:45:47;;;;;;;6.63;3.38;;;14.50;99.90;;;;;;5078664;28;20048;-85
2022/09/14 01:48:15;;;;;;;11.50;2.67;;;;;;;;;;5095649;28;20044;-85
2022/09/14 01:50:47;;;;;;;7.43;2.80;;;14.50;99.90;;;;;;5078932;28;20048;-85
2022/09/14 01:53:33;;;;;;;14.80;4.30;;;14.50;99.90;;;;;;5095458;28;20107;-85
2022/09/14 01:56:37;;;;;;;3.63;2.53;;;14.50;99.90;;;;;;5078605;28;20050;-85
2022/09/14 01:59:24;;;;;;;8.88;2.28;;;;;;;;;;4994852;28;20046;-83
2022/09/14 02:01:53;;;;;;;4.65;2.78;;;;;;;;;;4978514;28;20081;-80
2022/09/14 02:04:28;;;;;;;3.92;2.90;;;14.70;99.90;;;;;;4994574;28;20045;-82
2022/09/14 02:06:55;;;;;;;6.63;2.88;;;;;;;;;;4978448;28;20055;-81
2022/09/14 02:09:25;;;;;;;7.88;3.63;;;14.70;99.90;;;;;;4994884;28;20529;-83
2022/09/14 02:11:51;;;;;;;5.57;3.03;;;;;;;;;;4978442;28;20037;-86
2022/09/14 02:14:17;;;;;;;7.50;2.95;;;;;;;;;;4978340;28;20064;-85
2022/09/14 02:16:45;;;;;;;8.23;3.33;;;14.70;99.90;;;;;;4994320;28;20132;-85
2022/09/14 02:19:12;;;;;;;5.32;2.97;;;14.70;99.90;;;;;;4978393;28;20046;-85
2022/09/14 02:21:38;;;;;;;5.32;3.00;;;14.80;99.90;;;;;;4994900;28;20132;-86
2022/09/14 02:24:04;;;;;;;6.78;3.47;;;14.70;99.90;;;;;;4994044;28;20046;-83
2022/09/14 02:26:31;;;;;;;6.43;3.08;;;;;;;;;;4978236;28;20118;-83
2022/09/14 02:28:57;;;;;;;5.13;2.47;;;;;;;;;;4994236;28;20053;-84
2022/09/14 02:31:23;;;;;;;3.95;2.50;;;;;;;;;;4978218;28;20429;-83
2022/09/14 02:34:10;;;;;;;7.38;3.33;;;14.80;99.90;;;;;;4994268;28;20046;-83
2022/09/14 02:36:36;;;;;;;3.55;2.35;;;;;;;;;;5077774;28;20044;-83
2022/09/14 02:39:15;;;;;;;6.03;2.45;;;15.00;99.90;;;;;;5094716;28;20162;-83
2022/09/14 02:41:41;;;;;;;5.75;2.55;;;;;;;;;;5078028;28;20039;-84
2022/09/14 02:44:38;;;;;;;7.40;2.47;;;14.80;99.90;;;;;;5077845;28;20164;-83
2022/09/14 02:47:27;;;;;;;9.85;2.58;;;14.90;99.90;;;;;;5094593;28;20039;-83
2022/09/14 02:50:25;;;;;;;4.55;2.15;;;14.60;99.90;;;;;;5077496;28;20054;-83
2022/09/14 02:53:00;;;;;;;8.13;2.63;;;14.80;99.90;;;;;;5056315;28;20055;-83
2022/09/14 02:55:30;;;;;;;4.72;2.50;;;14.70;99.90;;;;;;5060954;28;20048;-82
2022/09/14 02:58:05;;;;;;;5.68;2.53;;;15.00;99.90;;;;;;5094402;28;20046;-83
2022/09/14 03:00:35;;;;;;;6.70;3.13;;;14.80;99.90;;;;;;5094402;28;20491;-83
2022/09/14 03:03:01;;;;;;;8.85;2.70;;;;;;;;;;5094278;28;20039;-83
2022/09/14 03:05:27;;;;;;;5.47;2.83;;;14.90;99.90;;;;;;5094251;28;20043;-83
2022/09/14 03:07:53;;;;;;;6.65;2.30;;;;;;;;;;5077358;28;20152;-83
2022/09/14 03:10:19;;;;;;;5.30;3.03;;;;;;;;;;5077540;28;20130;-85
2022/09/14 03:12:45;;;;;;;7.32;2.38;;;;;;;;;;5093974;28;20043;-85
2022/09/14 03:15:11;;;;;;;2.83;2.00;;;;;;;;;;5077409;28;20585;-86
2022/09/14 03:17:37;;;;;;;4.65;2.55;;;;;;;;;;5076951;28;20499;-85
2022/09/14 03:20:03;;;;;;;4.97;2.25;;;;;;;;;;5077518;28;20052;-85
2022/09/14 03:22:29;;;;;;;3.25;1.58;;;15.10;99.90;;;;;;5094014;28;20044;-85
2022/09/14 03:24:55;;;;;;;3.35;2.35;;;15.00;99.90;;;;;;5077161;28;20046;-85
2022/09/14 03:27:21;;;;;;;6.93;2.17;;;;;;;;;;5094318;28;20040;-85
2022/09/14 03:29:47;;;;;;;5.55;1.98;;;;;;;;;;5077240;28;20392;-85
2022/09/14 03:32:13;;;;;;;5.53;2.20;;;;;;;;;;5093791;28;20049;-81
2022/09/14 03:34:39;;;;;;;8.27;2.50;;;;;;;;;;5077264;28;20404;-84
2022/09/14 03:37:06;;;;;;;6.18;2.20;;;15.10;99.90;;;;;;5093871;28;20047;-85
2022/09/14 03:39:31;;;;;;;6.63;2.17;;;14.80;99.90;;;;;;5112278;28;20059;-83
2022/09/14 03:41:57;;;;;;;2.83;2.13;;;;;;;;;;5094005;28;20036;-85
2022/09/14 03:44:23;;;;;;;5.70;2.85;;;15.30;99.90;;;;;;5093942;28;20051;-85
2022/09/14 03:46:49;;;;;;;4.28;2.42;;;;;;;;;;5093835;28;20040;-86
2022/09/14 03:49:15;;;;;;;5.30;3.22;;;15.00;99.90;;;;;;5093750;28;20040;-86
2022/09/14 03:51:41;;;;;;;4.75;3.03;;;;;;;;;;5077448;28;20043;-85
2022/09/14 03:54:07;;;;;;;4.43;2.75;;;;;;;;;;5111852;28;20040;-81
2022/09/14 03:56:33;;;;;;;2.63;2.42;;;;;;;;;;5112035;28;20075;-81
2022/09/14 03:58:59;;;;;;;9.88;2.60;;;15.10;99.90;;;;;;5093775;28;20047;-81
2022/09/14 04:01:25;;;;;;;12.73;4.05;;;;;;;;;;5093587;28;20122;-81
2022/09/14 04:03:51;;;;;;;3.63;2.75;;;15.10;99.90;;;;;;5076815;28;20047;-82
2022/09/14 04:06:17;;;;;;;8.77;3.15;;;15.10;99.90;;;;;;5076717;28;20048;-82
2022/09/14 04:08:44;;;;;;;4.05;3.30;;;15.00;99.90;;;;;;5093486;28;20039;-82
2022/09/14 04:11:10;;;;;;;5.00;3.35;;;;;;;;;;5077097;28;20052;-81
2022/09/14 04:13:37;;;;;;;5.72;3.15;;;;;;;;;;5093564;28;20047;-81
2022/09/14 04:16:03;;;;;;;4.07;3.22;;;;;;;;;;5076930;28;20104;-81
2022/09/14 04:18:30;;;;;;;8.70;2.88;;;;;;;;;;5076445;28;20036;-81
2022/09/14 04:20:57;;;;;;;4.75;3.35;;;15.00;99.90;;;;;;5093851;28;20129;-82
2022/09/14 04:23:23;;;;;;;12.90;3.83;;;;;;;;;;5093617;28;20087;-81
2022/09/14 04:25:49;;;;;;;4.57;3.17;;;;;;;;;;5076752;28;20571;-81
2022/09/14 04:28:14;;;;;;;4.93;2.80;;;14.90;99.90;;;;;;5078112;28;20032;-81
2022/09/14 04:30:40;;;;;;;5.13;2.75;;;15.20;99.90;;;;;;5080828;28;20384;-81
2022/09/14 04:33:06;;;;;;;8.25;3.35;;;;;;;;;;5097074;28;20047;-82
2022/09/14 04:35:32;;;;;;;7.07;3.47;;;;;;;;;;5080066;28;20047;-83
2022/09/14 04:37:58;;;;;;;8.13;3.55;;;14.70;99.90;;;;;;5080218;28;20104;-83
2022/09/14 04:40:24;;;;;;;6.50;3.65;;;;;;;;;;5097027;28;20047;-83
2022/09/14 04:42:50;;;;;;;6.07;3.38;;;;;;;;;;5097172;28;20126;-83
2022/09/14 04:45:16;;;;;;;3.75;3.25;;;;;;;;;;5097152;28;20575;-83
2022/09/14 04:47:42;;;;;;;5.22;4.55;;;;;;;;;;5097479;28;20058;-82
2022/09/14 04:50:08;;;;;;;4.57;3.08;;;15.00;99.90;;;;;;5079912;28;20476;-81
2022/09/14 04:52:34;;;;;;;6.95;3.10;;;;;;;;;;5079826;28;20039;-82
2022/09/14 04:55:00;;;;;;;7.18;2.92;;;;;;;;;;5096787;28;20047;-82
2022/09/14 04:57:26;;;;;;;5.95;3.10;;;;;;;;;;5096770;28;20117;-82
2022/09/14 04:59:52;;;;;;;4.85;3.25;;;;;;;;;;5115630;28;20044;-83
2022/09/14 05:02:18;;;;;;;4.32;2.83;;;;;;;;;;5115055;28;20036;-83
2022/09/14 05:04:44;;;;;;;4.57;3.10;;;;;;;;;;5096504;28;20126;-82
2022/09/14 05:07:10;;;;;;;7.55;3.28;;;;;;;;;;5096570;28;20122;-83
2022/09/14 05:09:36;;;;;;;4.95;2.90;;;;;;;;;;5079798;28;20052;-83
2022/09/14 05:12:02;;;;;;;3.53;2.80;;;;;;;;;;5079417;28;20058;-83
2022/09/14 05:14:28;;;;;;;5.93;3.55;;;;;;;;;;5079097;28;20058;-82
2022/09/14 05:16:56;;;;;;;5.25;4.00;;;;;;;;;;5096151;28;20126;-83
2022/09/14 05:19:22;;;;;;;2.83;2.63;;;;;;;;;;5096522;28;20054;-83
2022/09/14 05:21:48;;;;;;;7.13;3.30;;;;;;;;;;5096618;28;20075;-85
2022/09/14 05:24:18;;;;;;;6.43;3.10;;;;;;;;;;5080185;28;20040;-85
2022/09/14 05:26:45;;;;;;;3.88;2.92;;;14.90;99.90;;;;;;5096882;28;20069;-85
2022/09/14 05:29:12;;;;;;;6.22;2.78;;;;;;;;;;5096535;28;20108;-86
2022/09/14 05:31:38;;;;;;;5.13;2.95;;;;;;;;;;5114790;28;20044;-86
2022/09/14 05:34:04;;;;;;;4.97;2.83;;;;;;;;;;5114038;28;20101;-82
2022/09/14 05:36:30;;;;;;;6.75;3.33;;;;;;;;;;5096175;28;20079;-79
2022/09/14 05:38:56;;;;;;;4.07;2.90;;;;;;;;;;5114102;28;20035;-81
2022/09/14 05:41:22;;;;;;;4.10;2.80;;;15.10;99.90;;;;;;5078783;28;20553;-81
2022/09/14 05:43:48;;;;;;;7.28;3.25;;;15.00;99.90;;;;;;5078929;28;20071;-81
2022/09/14 05:46:16;;;;;;;5.75;3.33;;;15.10;99.90;;;;;;5114310;28;20052;-81
2022/09/14 05:48:42;;;;;;;7.22;3.10;;;;;;;;;;5096072;28;20184;-81
2022/09/14 05:51:17;;;;;;;4.95;2.80;;;14.90;99.90;;;;;;5113937;28;20089;-80
2022/09/14 05:53:50;;;;;;;5.13;3.08;;;15.00;99.90;;;;;;5095743;28;20519;-80
2022/09/14 05:56:16;;;;;;;6.57;3.13;;;;;;;;;;5078729;28;20043;-81
2022/09/14 05:58:43;;;;;;;6.22;3.33;;;15.20;99.90;;;;;;5095571;28;20530;-81
2022/09/14 06:01:11;;;;;;;8.38;3.42;;;15.00;99.90;;;;;;5079143;28;20044;-81
2022/09/14 06:03:38;;;;;;;6.10;3.15;;;;;;;;;;5079174;28;20046;-81
2022/09/14 06:06:05;;;;;;;7.75;3.20;;;15.10;99.90;;;;;;5094989;28;20052;-81
2022/09/14 06:08:31;;;;;;;7.30;3.05;;;15.00;99.90;;;;;;5095628;28;20126;-82
2022/09/14 06:11:05;;;;;;;4.43;3.22;;;14.80;99.90;;;;;;5095179;28;20126;-81
2022/09/14 06:13:32;;;;;;;7.85;2.80;;;;;;;;;;5078157;28;20519;-82
2022/09/14 06:16:01;;;;;;;5.20;2.78;;;;;;;;;;5095101;28;20062;-81
2022/09/14 06:18:29;;;;;;;9.93;3.63;;;;;;;;;;5095039;28;20046;-81
2022/09/14 06:20:55;;;;;;;5.00;3.05;;;;;;;;;;5078050;28;20050;-81
2022/09/14 06:23:22;;;;;;;12.07;3.90;;;;;;;;;;5095358;28;20039;-81
2022/09/14 06:25:48;;;;;;;7.25;3.55;;;;;;;;;;5077886;28;20070;-81
2022/09/14 06:28:14;;;;;;;4.07;3.60;;;;;;;;;;5097777;28;20040;-80
2022/09/14 06:30:43;;;;;;;4.80;3.42;;;;;;;;;;5097562;27;20047;-81
2022/09/14 06:33:09;;;;;;;7.88;3.22;;;;;;;;;;5098375;27;20372;-81
2022/09/14 06:35:35;;;;;;;9.10;2.90;;;;;;;;;;5097858;27;20039;-81
2022/09/14 06:38:02;;;;;;;6.07;2.83;;;;;;;;;;5098024;27;20199;-86
2022/09/14 06:40:28;;;;;;;5.28;2.78;;;;;;;;;;5133644;27;20035;-86
2022/09/14 06:42:54;;;;;;;8.27;3.28;;;;;;;;;;5115651;27;20050;-86
2022/09/14 06:45:20;;;;;;;7.15;2.78;;;;;;;;;;5098540;27;20166;-87
2022/09/14 06:47:46;;;;;;;3.33;2.45;;;15.20;99.90;;;;;;5098473;27;20043;-85
2022/09/14 06:50:12;;;;;;;8.88;2.70;;;;;;;;;;5097810;27;20049;-85
2022/09/14 06:52:39;;;;;;;5.28;2.95;;;;;;;;;;5114096;27;20092;-86
2022/09/14 06:55:05;;;;;;;5.50;2.85;;;;;;;;;;5097925;27;20047;-86
2022/09/14 06:57:31;;;;;;;4.50;2.40;;;;;;;;;;5086563;28;20046;-85
2022/09/14 06:59:57;;;;;;;8.98;2.60;;;;;;;;;;5077308;28;20492;-86
2022/09/14 07:02:23;;;;;;;8.18;5.25;;;;;;;;;;5112753;28;20046;-86
2022/09/14 07:04:49;;;;;;;4.97;1.90;;;;;;;;;;5112371;28;20130;-85
2022/09/14 07:07:15;;;;;;;9.23;3.22;;;15.50;99.90;;;;;;5094251;28;20484;-86
2022/09/14 07:09:41;;;;;;;3.20;2.20;;;;;;;;;;5112444;28;20101;-79
2022/09/14 07:12:08;;;;;;;6.18;2.53;;;15.60;99.90;;;;;;5094136;28;20079;-78
2022/09/14 07:14:35;;;;;;;3.83;2.20;;;15.70;99.90;;;;;;5093748;28;20063;-84
2022/09/14 07:17:01;;;;;;;5.63;2.13;;;15.90;99.90;;;;;;5094310;28;20530;-85
2022/09/14 07:19:27;;;;;;;4.18;2.50;;;;;;;;;;5093321;28;20077;-79
2022/09/14 07:21:53;;;;;;;5.80;2.20;;;;;;;;;;5076901;28;20388;-81
2022/09/14 07:24:20;;;;;;;4.22;2.22;;;;;;;;;;5093888;28;20047;-81
2022/09/14 07:26:46;;;;;;;8.68;2.55;;;;;;;;;;5093583;28;20047;-81
2022/09/14 07:29:18;;;;;;;3.90;2.20;;;15.80;99.90;;;;;;5094062;28;20062;-81
2022/09/14 07:31:46;;;;;;;3.55;2.20;;;16.00;99.90;;;;;;5093588;28;20047;-79
2022/09/14 07:34:13;;;;;;;9.45;2.40;;;15.90;99.90;;;;;;5093735;28;20476;-81
2022/09/14 07:36:39;;;;;;;5.28;2.15;;;;;;;;;;5093998;28;20396;-81
2022/09/14 07:39:10;;;;;;;3.25;1.98;;;16.20;99.90;;;;;;5093921;28;20492;-81
2022/09/14 07:41:36;;;;;;;9.60;2.53;;;;;;;;;;5093158;28;20046;-81
2022/09/14 07:44:04;;;;;;;5.38;1.92;;;16.00;99.90;;;;;;5076877;28;20076;-81
2022/09/14 07:46:36;;;;;;;6.78;1.98;;;16.10;99.90;;;;;;5077085;28;20128;-82
2022/09/14 07:49:02;;;;;;;8.60;2.40;;;;;;;;;;5076800;28;20044;-81
2022/09/14 07:51:29;;;;;;;5.80;2.33;;;16.10;99.90;;;;;;5093010;28;20086;-81
2022/09/14 07:53:56;;;;;;;3.03;2.22;;;16.20;99.90;;;;;;5076521;28;20039;-82
2022/09/14 07:56:24;;;;;;;5.57;1.73;;;;;;;;;;5093326;28;20047;-83
2022/09/14 07:58:52;;;;;;;6.13;2.00;;;16.40;99.90;;;;;;5076471;28;20040;-83
2022/09/14 08:01:18;;;;;;;6.32;1.80;;;;;;;;;;5093257;28;20381;-82
2022/09/14 08:03:45;;;;;;;5.32;1.73;;;16.30;99.90;;;;;;5095830;28;20067;-81
2022/09/14 08:06:12;;;;;;;5.05;1.83;;;16.50;99.90;;;;;;5097688;28;20415;-83
2022/09/14 08:08:41;;;;;;;3.50;1.58;;;16.60;99.90;;;;;;5080659;28;20055;-82
2022/09/14 08:11:11;;;;;;;6.30;1.65;;;16.30;99.90;;;;;;5096981;28;20054;-83
2022/09/14 08:13:43;;;;;;;5.70;1.48;;;16.60;99.90;;;;;;5080394;28;20058;-83
2022/09/14 08:16:09;;;;;;;5.88;1.60;;;16.50;99.90;;;;;;5080187;28;20043;-81
2022/09/14 08:18:36;;;;;;;3.40;1.75;;;16.60;99.90;;;;;;5097150;28;20075;-82
2022/09/14 08:21:07;;;;;;;7.05;1.65;;;16.70;99.90;;;;;;5079399;28;20047;-82
2022/09/14 08:23:33;;;;;;;8.15;1.75;;;16.80;99.90;;;;;;5080187;28;20101;-82
2022/09/14 08:26:25;;;;;;;18.00;3.40;;;16.70;99.90;;;;;;5080245;28;20035;-82
2022/09/14 08:28:51;;;;;;;4.05;1.60;;;16.90;99.90;;;;;;5079902;28;20047;-82
2022/09/14 08:31:20;;;;;;;4.25;1.45;;;16.90;99.90;;;;;;5096820;28;20039;-82
2022/09/14 08:33:48;;;;;;;8.13;1.80;;;17.00;99.90;;;;;;5079994;28;20047;-82
2022/09/14 08:36:16;;;;;;;7.00;1.88;;;17.10;99.90;;;;;;5079705;28;20130;-82
2022/09/14 08:38:43;;;;;;;2.25;1.05;;;;;;;;;;5096942;28;20093;-82
2022/09/14 08:41:09;;;;;;;5.70;1.23;;;;;;;;;;5097054;28;20051;-83
2022/09/14 08:43:37;;;;;;;3.45;1.23;;;17.20;99.90;;;;;;5114728;28;20043;-82
2022/09/14 08:46:07;;;;;;;9.60;2.03;;;17.50;99.90;;;;;;5096933;28;20130;-81
2022/09/14 08:48:36;;;;;;;8.10;1.77;;;17.40;99.90;;;;;;5079847;28;20043;-81
2022/09/14 08:51:04;;;;;;;4.25;1.23;;;17.60;99.90;;;;;;5096191;28;20226;-80
2022/09/14 08:53:34;;;;;;;8.10;1.67;;;17.50;99.90;;;;;;5096146;28;20130;-81
2022/09/14 08:56:06;;;;;;;8.70;1.45;;;17.80;99.90;;;;;;5114675;28;20070;-81
2022/09/14 08:59:00;;;;;;;1.45;1.00;;;18.00;99.90;;;;;;5096216;28;20138;-80
2022/09/14 09:01:39;;;;;;;6.70;1.45;;;17.50;99.90;;;;;;5096705;28;20047;-81
2022/09/14 09:04:12;;;;;;;6.85;1.33;;;17.90;99.90;;;;;;5079063;28;20055;-81
2022/09/14 09:06:55;;;;;;;;;;;17.70;99.90;;;;;;5114694;28;20039;-82
2022/09/14 09:09:37;;;;;;;4.85;1.30;;;18.10;99.90;;;;;;5096647;28;20337;-81
2022/09/14 09:12:04;;;;;;;6.45;2.22;;;17.80;99.90;;;;;;5114694;28;20043;-81
2022/09/14 09:14:39;;;;;;;5.38;1.38;;;17.90;99.90;;;;;;5094882;28;20431;-81
2022/09/14 09:17:13;;;;;;;6.45;1.65;;;20.00;99.90;;;;;;5062324;28;20079;-81
2022/09/14 09:19:56;;;;;;;6.35;1.60;;;18.10;99.90;;;;;;5096341;28;20111;-81
2022/09/14 09:22:24;;;;;;;3.83;1.10;;;17.90;99.90;;;;;;5079038;28;20044;-81
2022/09/14 09:24:54;;;;;;;3.30;1.05;;;17.70;99.90;;;;;;5079348;28;20043;-81
2022/09/14 09:27:21;;;;;;;6.43;1.88;;;;;;;;;;5079576;28;20035;-87
2022/09/14 09:29:47;;;;;;;7.38;1.23;;;;;;;;;;5079499;28;20082;-86
2022/09/14 09:32:22;;;;;;;4.80;1.00;;;18.10;99.90;;;;;;5079609;28;20051;-86
2022/09/14 09:34:48;;;;;;;3.15;1.42;;;;;;;;;;5096290;28;20050;-84
2022/09/14 09:37:20;;;;;;;5.65;1.33;;;18.00;99.90;;;;;;5079558;28;20074;-83
2022/09/14 09:39:45;;;;;;;4.25;1.67;;;18.00;99.90;;;;;;5096737;28;20048;-86
2022/09/14 09:42:20;;;;;;;4.43;1.30;;;18.00;99.90;;;;;;5080332;28;20044;-85
2022/09/14 09:45:02;;;;;;;9.38;1.40;;;17.90;99.90;;;;;;5096141;28;20058;-86
2022/09/14 09:47:39;;;;;;;7.22;1.65;;;18.00;99.90;;;;;;5079610;28;20065;-84
2022/09/14 09:50:14;;;;;;;5.63;1.75;;;18.00;99.90;;;;;;5096761;28;20043;-86
2022/09/14 09:52:53;;;;;;;1.65;1.00;;;17.90;99.90;;;;;;5079555;28;20130;-83
2022/09/14 09:55:24;;;;;;;10.45;1.30;;;18.00;99.90;;;;;;5097504;28;20408;-85
2022/09/14 09:57:53;;;;;;;12.80;1.42;;;18.00;99.90;;;;;;5097477;28;20118;-85
2022/09/14 10:00:25;;;;;;;6.47;1.50;;;18.20;99.90;;;;;;5081310;28;20047;-86
2022/09/14 10:02:52;;;;;;;2.53;1.25;;;18.30;99.90;;;;;;5079521;28;20055;-82
2022/09/14 10:05:31;;;;;;;6.43;1.25;;;18.10;99.90;;;;;;5079441;28;20046;-81
2022/09/14 10:07:59;;;;;;;5.30;1.80;;;18.40;99.90;;;;;;5078881;28;20051;-81
2022/09/14 10:10:34;;;;;;;4.85;1.83;;;17.90;99.90;;;;;;5095536;28;20047;-81
2022/09/14 10:13:04;;;;;;;9.85;1.63;;;18.30;99.90;;;;;;5095926;28;20478;-81
2022/09/14 10:15:33;;;;;;;3.38;1.08;;;18.30;99.90;;;;;;5095411;28;20069;-81
2022/09/14 10:18:17;;;;;;;4.40;1.23;;;18.30;99.90;;;;;;5095771;28;20039;-81
2022/09/14 10:20:52;;;;;;;4.45;1.25;;;18.50;99.90;;;;;;5062758;28;20055;-82
2022/09/14 10:23:18;;;;;;;5.78;1.00;;;;;;;;;;5079198;28;20522;-82
2022/09/14 10:25:46;;;;;;;4.70;1.27;;;18.20;99.90;;;;;;5095811;28;20048;-81
2022/09/14 10:28:20;;;;;;;5.30;1.20;;;18.50;99.90;;;;;;5079770;28;20055;-82
2022/09/14 10:30:59;;;;;;;2.40;1.20;;;18.30;99.90;;;;;;5096259;28;20062;-81
2022/09/14 10:33:25;;;;;;;11.07;1.38;;;;;;;;;;5079533;28;20043;-82
2022/09/14 10:36:13;;;;;;;5.40;1.17;;;18.70;99.90;;;;;;5078793;28;20139;-82
2022/09/14 10:38:57;;;;;;;4.80;1.15;;;18.40;99.90;;;;;;5113978;28;20179;-84
2022/09/14 10:41:53;;;;;;;3.90;2.40;;;18.60;99.90;;;;;;5095493;28;20051;-81
2022/09/14 10:44:56;;;;;;;5.55;1.30;;;18.60;99.90;;;;;;5078734;28;20407;-83
2022/09/14 10:47:44;;;;;;;9.30;2.13;;;18.60;99.90;;;;;;5078112;28;20096;-84
2022/09/14 10:50:24;;;;;;;4.80;1.30;;;18.60;99.90;;;;;;5096006;28;20054;-85
2022/09/14 10:52:59;;;;;;;3.58;1.30;;;18.70;99.90;;;;;;5078906;28;20547;-84
2022/09/14 10:55:41;;;;;;;9.52;2.20;;;19.00;99.90;;;;;;5095878;28;20047;-85
2022/09/14 10:58:24;;;;;;;16.95;2.10;;;18.80;99.90;;;;;;5095577;28;20511;-84
2022/09/14 11:00:56;;;;;;;3.92;1.20;;;18.70;99.90;;;;;;5095772;28;20043;-86
2022/09/14 11:03:54;;;;;;;3.88;1.48;;;19.10;99.90;;;;;;5095863;28;20048;-84
2022/09/14 11:06:46;;;;;;;6.38;2.55;;;19.00;99.90;;;;;;5078257;28;20483;-85
2022/09/14 11:09:19;;;;;;;10.13;1.52;;;19.10;99.90;;;;;;5078886;28;20399;-85
2022/09/14 11:12:06;;;;;;;4.38;1.08;;;19.00;99.90;;;;;;5079006;28;20068;-86
2022/09/14 11:15:11;;;;;;;2.65;1.15;;;19.20;99.90;;;;;;5095124;28;20051;-84
2022/09/14 11:18:14;;;;;;;13.98;1.65;;;19.50;99.90;;;;;;5094260;28;20404;-84
2022/09/14 11:21:08;;;;;;;10.10;1.63;;;19.10;99.90;;;;;;5095734;28;20043;-85
2022/09/14 11:24:01;;;;;;;3.33;1.30;;;19.50;99.90;;;;;;5079565;28;20048;-84
2022/09/14 11:26:41;;;;;;;4.73;1.17;;;19.80;99.90;;;;;;5095913;28;20084;-85
2022/09/14 11:29:33;;;;;;;3.50;1.80;;;19.80;99.90;;;;;;5097193;28;20051;-85
2022/09/14 11:32:30;;;;;;;5.88;1.05;;;20.00;99.90;;;;;;5096623;28;20131;-86
2022/09/14 11:35:09;;;;;;;6.85;1.42;;;19.70;99.90;;;;;;5096089;28;20048;-85
2022/09/14 11:37:41;;;;;;;2.90;1.20;;;19.90;99.90;;;;;;5094933;28;20067;-86
2022/09/14 11:40:22;;;;;;;1.92;1.20;;;19.80;99.90;;;;;;5094905;28;20488;-86
2022/09/14 11:42:55;;;;;;;1.33;0.93;;;19.80;99.90;;;;;;5094860;28;20054;-86
2022/09/14 11:45:30;;;;;;;7.80;1.73;;;19.90;99.90;;;;;;5078034;28;20377;-86
2022/09/14 11:48:06;;;;;;;10.82;1.50;;;19.50;99.90;;;;;;5077777;28;20046;-86
2022/09/14 11:50:34;;;;;;;6.15;1.45;;;19.70;99.90;;;;;;5094538;28;20392;-86
2022/09/14 11:53:13;;;;;;;5.88;1.60;;;19.80;99.90;;;;;;5077344;28;20089;-84
2022/09/14 11:55:49;;;;;;;5.95;1.42;;;19.90;99.90;;;;;;5094750;28;20480;-84
2022/09/14 11:58:24;;;;;;;9.43;2.17;;;19.40;99.90;;;;;;5077286;28;20446;-85
2022/09/14 12:01:01;;;;;;;8.18;2.55;;;19.80;99.90;;;;;;5094421;28;20048;-85
2022/09/14 12:03:59;;;;;;;8.18;1.52;;;19.60;99.90;;;;;;5077451;28;20058;-86
2022/09/14 12:06:30;;;;;;;7.03;1.48;;;19.50;99.90;;;;;;4993983;28;20054;-86
2022/09/14 12:09:21;;;;;;;8.02;2.15;;;19.40;99.90;;;;;;4993403;28;20060;-86
2022/09/14 12:11:58;;;;;;;9.30;2.35;;;19.70;99.90;;;;;;4978019;28;20136;-80
2022/09/14 12:14:26;;;;;;;4.20;1.48;;;19.80;99.90;;;;;;4993966;28;20053;-80
2022/09/14 12:17:21;;;;;;;15.20;2.40;;;19.80;99.90;;;;;;4994257;28;20085;-80
2022/09/14 12:19:51;;;;;;;6.07;1.50;;;19.80;99.90;;;;;;4977407;28;20108;-80
2022/09/14 12:22:36;;;;;;;7.20;1.60;;;19.80;99.90;;;;;;4993786;28;20068;-80
2022/09/14 12:25:08;;;;;;;10.48;2.28;;;20.10;99.90;;;;;;4993657;28;20088;-80
2022/09/14 12:27:39;;;;;;;6.35;2.05;;;19.90;99.90;;;;;;4977474;28;20053;-81
2022/09/14 12:30:34;;;;;;;5.72;1.98;;;20.00;99.90;;;;;;5009816;28;20054;-81
2022/09/14 12:33:00;;;;;;;10.73;2.22;;;20.00;99.90;;;;;;5010319;28;20042;-80
2022/09/14 12:35:38;;;;;;;6.82;1.55;;;20.10;99.90;;;;;;4993831;28;20498;-81
2022/09/14 12:38:29;;;;;;;2.63;1.10;;;20.10;99.90;;;;;;4993615;28;20117;-80
2022/09/14 12:41:00;;;;;;;10.50;2.20;;;20.20;99.90;;;;;;4996891;28;20054;-80
2022/09/14 12:43:31;;;;;;;6.40;1.83;;;20.20;99.90;;;;;;5057492;28;20404;-80
2022/09/14 12:46:03;;;;;;;26.52;3.90;;;20.20;99.90;;;;;;5074059;28;20083;-80
2022/09/14 12:48:54;;;;;;;3.08;1.30;;;20.20;99.90;;;;;;5074040;28;20484;-80
2022/09/14 12:51:30;;;;;;;4.68;1.27;;;20.10;99.90;;;;;;5094975;28;20456;-80
2022/09/14 12:54:07;;;;;;;7.13;1.60;;;20.30;99.90;;;;;;5096061;28;20048;-84
2022/09/14 12:56:41;;;;;;;3.22;1.20;;;20.20;99.90;;;;;;5061686;28;20131;-85
2022/09/14 12:59:19;;;;;;;6.75;1.60;;;20.20;99.90;;;;;;5097576;28;20051;-85
2022/09/14 13:02:18;;;;;;;12.40;2.13;;;20.20;99.90;;;;;;5081042;28;20043;-83
2022/09/14 13:04:46;;;;;;;6.75;1.90;;;20.10;99.90;;;;;;5081033;28;20050;-85
2022/09/14 13:07:15;;;;;;;10.23;1.23;;;20.10;99.90;;;;;;5081353;28;20535;-84
2022/09/14 13:09:52;;;;;;;4.65;1.70;;;20.30;99.90;;;;;;5081137;28;20036;-85
2022/09/14 13:12:43;;;;;;;5.00;1.30;;;20.10;99.90;;;;;;5097997;28;20075;-85
2022/09/14 13:15:27;;;;;;;7.20;1.45;;;20.20;99.90;;;;;;4996961;28;20058;-85
2022/09/14 13:18:04;;;;;;;6.40;1.30;;;20.20;99.90;;;;;;4997459;28;20054;-86
2022/09/14 13:20:32;;;;;;;5.95;1.88;;;20.10;99.90;;;;;;4997140;28;20115;-84
2022/09/14 13:22:58;;;;;;;4.57;1.63;;;19.70;99.90;;;;;;4980876;28;20053;-85
2022/09/14 13:25:33;;;;;;;4.50;1.27;;;20.10;99.90;;;;;;4980963;28;20192;-85
2022/09/14 13:28:06;;;;;;;7.97;1.80;;;19.80;99.90;;;;;;4992713;28;20532;-85
2022/09/14 13:30:34;;;;;;;10.20;1.70;;;20.10;99.90;;;;;;5000084;28;20059;-85
2022/09/14 13:33:00;;;;;;;5.20;1.25;;;20.00;99.90;;;;;;5016544;28;20609;-84
2022/09/14 13:35:37;;;;;;;5.55;1.50;;;20.00;99.90;;;;;;5016020;28;20045;-84
2022/09/14 13:38:18;;;;;;;8.15;1.20;;;19.90;99.90;;;;;;5016548;28;20045;-85
2022/09/14 13:40:48;;;;;;;3.97;1.63;;;20.30;99.90;;;;;;5016626;28;20052;-85
2022/09/14 13:43:18;;;;;;;5.53;1.65;;;20.30;99.90;;;;;;5017335;28;20056;-85
2022/09/14 13:45:45;;;;;;;7.25;1.35;;;19.90;99.90;;;;;;5017074;28;20529;-84
2022/09/14 13:48:14;;;;;;;9.90;1.30;;;20.30;99.90;;;;;;5000822;28;20045;-85
2022/09/14 13:50:43;;;;;;;2.65;1.40;;;20.20;99.90;;;;;;4983223;28;20137;-85